Time;durP1;ratioP1;P1;durP2;ratioP2;P2;SDS_P1;SDS_P2;PMS_P1;PMS_P2;Temp;Humidity;BMP_temperature;BMP_pressure;BME280_temperature;BME280_humidity;BME280_pressure;Samples;Min_cycle;Max_cycle;Signal;HPM_P1;HPM_P2
2023/06/07 00:00:09;;;;;;;8.70;4.50;;;19.90;94.30;;;;;;2091441;28;20071;-71
2023/06/07 00:01:12;;;;;;;6.22;4.72;;;19.90;94.60;;;;;;2091960;28;20025;-71
2023/06/07 00:02:14;;;;;;;7.88;4.95;;;19.90;94.00;;;;;;2090114;28;20033;-71
2023/06/07 00:03:14;;;;;;;7.30;4.25;;;19.90;94.00;;;;;;2090941;28;20032;-71
2023/06/07 00:04:15;;;;;;;6.20;4.50;;;19.90;93.30;;;;;;2090172;28;20056;-71
2023/06/07 00:05:15;;;;;;;10.38;5.00;;;19.90;93.30;;;;;;2092925;28;20017;-71
2023/06/07 00:06:16;;;;;;;11.68;4.72;;;19.90;93.80;;;;;;2095725;28;20071;-71
2023/06/07 00:07:18;;;;;;;7.90;4.95;;;19.90;94.30;;;;;;2089996;28;20064;-71
2023/06/07 00:08:18;;;;;;;8.38;4.50;;;19.90;94.20;;;;;;2091017;28;20035;-71
2023/06/07 00:09:19;;;;;;;8.63;4.60;;;19.90;94.40;;;;;;2092246;28;20025;-71
2023/06/07 00:10:19;;;;;;;6.68;4.43;;;19.90;94.00;;;;;;2090162;28;20443;-71
2023/06/07 00:11:21;;;;;;;7.10;4.80;;;19.90;93.80;;;;;;2089688;28;20024;-71
2023/06/07 00:12:22;;;;;;;8.50;4.80;;;19.90;93.90;;;;;;2090813;28;20032;-71
2023/06/07 00:13:22;;;;;;;7.43;5.00;;;19.90;93.90;;;;;;2089621;28;20067;-71
2023/06/07 00:14:24;;;;;;;9.73;4.75;;;19.90;94.00;;;;;;2089847;28;20021;-71
2023/06/07 00:15:24;;;;;;;10.63;4.55;;;19.90;94.10;;;;;;2091820;28;20050;-71
2023/06/07 00:16:26;;;;;;;7.72;4.18;;;19.90;94.40;;;;;;2092362;28;20020;-71
2023/06/07 00:17:27;;;;;;;8.95;4.90;;;19.90;93.50;;;;;;2090588;28;20060;-71
2023/06/07 00:18:28;;;;;;;6.75;4.75;;;19.90;94.20;;;;;;2090873;28;20028;-71
2023/06/07 00:19:29;;;;;;;7.85;4.68;;;19.90;94.50;;;;;;2088869;28;20024;-71
2023/06/07 00:20:30;;;;;;;6.65;3.40;;;19.90;94.90;;;;;;2091188;28;20013;-71
2023/06/07 00:21:31;;;;;;;7.65;4.40;;;19.90;93.00;;;;;;2089428;28;20017;-71
2023/06/07 00:22:33;;;;;;;7.57;4.85;;;19.90;93.60;;;;;;2091769;28;20021;-71
2023/06/07 00:23:35;;;;;;;10.13;4.85;;;19.90;94.20;;;;;;2092023;28;20057;-71
2023/06/07 00:24:36;;;;;;;9.20;4.78;;;19.90;94.30;;;;;;2091790;28;20103;-71
2023/06/07 00:25:36;;;;;;;7.40;4.60;;;19.90;94.40;;;;;;2092545;28;20021;-71
2023/06/07 00:26:37;;;;;;;7.82;4.57;;;19.90;94.40;;;;;;2089926;28;20123;-71
2023/06/07 00:27:37;;;;;;;7.43;4.25;;;19.90;94.50;;;;;;2091933;28;20024;-71
2023/06/07 00:28:38;;;;;;;7.28;4.43;;;19.90;94.90;;;;;;2089455;28;20013;-71
2023/06/07 00:29:38;;;;;;;6.10;4.25;;;19.90;94.80;;;;;;2089823;28;20046;-71
2023/06/07 00:30:39;;;;;;;8.98;4.97;;;19.90;94.70;;;;;;2091299;28;20028;-71
2023/06/07 00:31:40;;;;;;;7.60;4.85;;;19.90;94.90;;;;;;2089785;28;22294;-71
2023/06/07 00:32:40;;;;;;;8.00;4.60;;;19.90;95.10;;;;;;2093086;28;20726;-71
2023/06/07 00:33:41;;;;;;;10.85;5.00;;;19.90;94.80;;;;;;2092601;28;20039;-71
2023/06/07 00:34:41;;;;;;;8.68;4.78;;;19.90;94.70;;;;;;2094585;28;20059;-71
2023/06/07 00:35:42;;;;;;;8.18;4.90;;;19.90;94.70;;;;;;2092396;28;20033;-71
2023/06/07 00:36:42;;;;;;;7.53;4.50;;;19.90;94.80;;;;;;2091754;28;20024;-71
2023/06/07 00:37:43;;;;;;;8.20;4.50;;;19.90;94.10;;;;;;2091623;28;20082;-71
2023/06/07 00:38:44;;;;;;;7.85;4.88;;;19.90;94.10;;;;;;2090220;28;20021;-71
2023/06/07 00:39:44;;;;;;;10.27;4.47;;;19.90;94.10;;;;;;2091571;28;20033;-71
2023/06/07 00:40:45;;;;;;;9.18;4.78;;;19.90;93.90;;;;;;2092348;28;20036;-71
2023/06/07 00:41:45;;;;;;;8.13;4.80;;;19.90;93.90;;;;;;2091092;28;20064;-71
2023/06/07 00:42:46;;;;;;;7.35;4.78;;;19.90;94.10;;;;;;2090827;28;20512;-71
2023/06/07 00:43:47;;;;;;;8.90;4.88;;;19.90;94.50;;;;;;2089184;28;20116;-71
2023/06/07 00:44:48;;;;;;;7.85;3.90;;;19.90;94.50;;;;;;2091013;28;20476;-71
2023/06/07 00:45:48;;;;;;;9.05;4.78;;;19.90;93.30;;;;;;2092879;28;20063;-71
2023/06/07 00:46:50;;;;;;;8.35;4.50;;;19.90;93.50;;;;;;2089961;28;20104;-71
2023/06/07 00:47:51;;;;;;;7.35;4.32;;;19.90;93.50;;;;;;2092716;28;20050;-71
2023/06/07 00:48:51;;;;;;;8.52;4.22;;;19.80;93.20;;;;;;2096039;28;20032;-71
2023/06/07 00:49:53;;;;;;;6.03;4.45;;;19.80;93.60;;;;;;2095254;28;20055;-71
2023/06/07 00:50:54;;;;;;;5.88;4.47;;;19.90;93.60;;;;;;2093282;28;20100;-71
2023/06/07 00:51:54;;;;;;;8.45;4.38;;;19.80;93.70;;;;;;2092602;28;20037;-71
2023/06/07 00:52:55;;;;;;;10.85;5.03;;;19.80;93.60;;;;;;2093771;28;20040;-71
2023/06/07 00:53:59;;;;;;;8.02;4.47;;;19.80;93.70;;;;;;2091946;28;20036;-71
2023/06/07 00:55:01;;;;;;;9.50;5.10;;;19.80;93.70;;;;;;2092833;28;20124;-71
2023/06/07 00:56:05;;;;;;;8.00;4.18;;;19.90;93.60;;;;;;2091918;28;20028;-71
2023/06/07 00:57:06;;;;;;;6.80;4.10;;;19.80;93.30;;;;;;2094300;28;20752;-71
2023/06/07 00:58:07;;;;;;;8.07;4.50;;;19.80;93.50;;;;;;2095473;28;20032;-71
2023/06/07 00:59:08;;;;;;;9.75;5.00;;;19.80;93.40;;;;;;2089602;28;20033;-71
2023/06/07 01:00:13;;;;;;;7.68;4.88;;;19.80;93.60;;;;;;2092678;28;20032;-71
2023/06/07 01:01:17;;;;;;;9.00;3.85;;;19.80;93.80;;;;;;2091828;28;20508;-71
2023/06/07 01:02:18;;;;;;;5.93;4.30;;;19.80;92.90;;;;;;2092335;28;20416;-71
2023/06/07 01:03:18;;;;;;;10.13;4.35;;;19.80;93.30;;;;;;2091221;28;20040;-71
2023/06/07 01:04:20;;;;;;;8.25;3.85;;;19.80;93.20;;;;;;2094664;28;20021;-71
2023/06/07 01:05:21;;;;;;;7.18;3.70;;;19.80;92.00;;;;;;2093599;28;20048;-71
2023/06/07 01:06:22;;;;;;;7.50;4.50;;;19.80;92.10;;;;;;2092943;28;20033;-71
2023/06/07 01:07:24;;;;;;;6.43;4.38;;;19.80;93.10;;;;;;2092956;28;20056;-71
2023/06/07 01:08:25;;;;;;;8.38;4.40;;;19.70;92.80;;;;;;2093636;28;20110;-71
2023/06/07 01:09:26;;;;;;;8.55;3.90;;;19.70;92.90;;;;;;2092927;28;20021;-71
2023/06/07 01:10:27;;;;;;;6.38;3.90;;;19.70;92.80;;;;;;2092912;28;20194;-71
2023/06/07 01:11:27;;;;;;;6.03;3.88;;;19.70;92.00;;;;;;2093503;28;20017;-72
2023/06/07 01:12:28;;;;;;;9.23;4.20;;;19.70;92.30;;;;;;2092907;28;20027;-72
2023/06/07 01:13:30;;;;;;;9.93;4.47;;;19.70;92.60;;;;;;2093543;28;20056;-71
2023/06/07 01:14:33;;;;;;;7.53;4.35;;;19.70;92.70;;;;;;2090392;28;20036;-71
2023/06/07 01:15:33;;;;;;;7.78;3.88;;;19.70;92.50;;;;;;2091304;28;20070;-71
2023/06/07 01:16:35;;;;;;;8.10;4.05;;;19.70;92.50;;;;;;2094734;28;20074;-71
2023/06/07 01:17:40;;;;;;;7.97;4.18;;;19.60;92.50;;;;;;2091131;28;20499;-71
2023/06/07 01:18:42;;;;;;;6.45;3.80;;;19.60;92.30;;;;;;2091794;28;20068;-71
2023/06/07 01:19:45;;;;;;;8.73;4.13;;;19.60;92.60;;;;;;2091452;28;20024;-71
2023/06/07 01:20:53;;;;;;;8.05;4.05;;;19.60;92.40;;;;;;2091904;28;20033;-71
2023/06/07 01:22:00;;;;;;;5.97;4.00;;;19.60;92.50;;;;;;2092111;28;20029;-72
2023/06/07 01:23:05;;;;;;;10.93;3.70;;;19.60;92.40;;;;;;2092552;28;20074;-72
2023/06/07 01:24:07;;;;;;;7.70;4.28;;;19.50;92.20;;;;;;2094010;28;20083;-71
2023/06/07 01:25:08;;;;;;;4.93;3.90;;;19.50;91.70;;;;;;2093155;28;20017;-71
2023/06/07 01:26:09;;;;;;;8.25;4.43;;;19.50;91.50;;;;;;2091869;28;20384;-71
2023/06/07 01:27:10;;;;;;;8.95;4.63;;;19.50;92.10;;;;;;2092667;28;20054;-71
2023/06/07 01:28:12;;;;;;;6.35;4.35;;;19.60;92.00;;;;;;2090022;28;20025;-71
2023/06/07 01:29:15;;;;;;;7.93;4.40;;;19.50;92.00;;;;;;2090356;28;20028;-71
2023/06/07 01:30:16;;;;;;;9.38;4.65;;;19.50;92.00;;;;;;2091278;28;20508;-71
2023/06/07 01:31:18;;;;;;;6.43;4.07;;;19.50;92.00;;;;;;2094741;28;20472;-71
2023/06/07 01:32:19;;;;;;;6.35;3.92;;;19.50;92.40;;;;;;2093727;28;20044;-71
2023/06/07 01:33:20;;;;;;;7.05;4.20;;;19.50;92.40;;;;;;2094426;28;20021;-71
2023/06/07 01:34:21;;;;;;;10.20;4.60;;;19.50;92.30;;;;;;2093557;28;20107;-71
2023/06/07 01:35:22;;;;;;;9.45;4.40;;;19.50;92.70;;;;;;2092916;28;20075;-71
2023/06/07 01:36:25;;;;;;;6.57;3.95;;;19.50;92.90;;;;;;2089484;28;20028;-71
2023/06/07 01:37:26;;;;;;;6.38;4.03;;;19.50;92.90;;;;;;2093190;28;20677;-71
2023/06/07 01:38:27;;;;;;;9.38;4.30;;;19.50;92.60;;;;;;2092538;28;20032;-71
2023/06/07 01:39:29;;;;;;;5.30;3.92;;;19.40;92.10;;;;;;2091986;28;20059;-71
2023/06/07 01:40:34;;;;;;;7.40;4.43;;;19.40;91.50;;;;;;2090801;28;20064;-71
2023/06/07 01:41:36;;;;;;;5.72;4.07;;;19.40;92.30;;;;;;2092003;28;20016;-71
2023/06/07 01:42:37;;;;;;;6.65;4.07;;;19.40;92.50;;;;;;2090571;28;20024;-71
2023/06/07 01:43:38;;;;;;;8.85;3.95;;;19.40;92.80;;;;;;2092319;28;20033;-71
2023/06/07 01:44:40;;;;;;;7.93;4.18;;;19.40;92.40;;;;;;2092614;28;20449;-71
2023/06/07 01:45:43;;;;;;;7.25;4.18;;;19.40;92.90;;;;;;2091157;28;20025;-71
2023/06/07 01:46:45;;;;;;;5.57;3.70;;;19.40;93.10;;;;;;2091791;28;20095;-71
2023/06/07 01:47:46;;;;;;;6.78;4.22;;;19.40;93.00;;;;;;2090752;28;20060;-71
2023/06/07 01:48:46;;;;;;;7.35;4.18;;;19.40;92.50;;;;;;2092311;28;20036;-71
2023/06/07 01:49:47;;;;;;;5.18;4.00;;;19.40;92.60;;;;;;2092858;28;20028;-71
2023/06/07 01:50:48;;;;;;;6.30;3.95;;;19.40;92.90;;;;;;2091439;28;20059;-71
2023/06/07 01:51:48;;;;;;;5.88;3.90;;;19.40;92.90;;;;;;2091329;28;20116;-71
2023/06/07 01:52:49;;;;;;;10.32;4.47;;;19.40;92.60;;;;;;2092175;28;20104;-71
2023/06/07 01:53:50;;;;;;;8.73;4.00;;;19.40;91.60;;;;;;2092154;28;20025;-71
2023/06/07 01:54:51;;;;;;;3.80;3.45;;;19.40;92.20;;;;;;2093235;28;20028;-71
2023/06/07 01:55:59;;;;;;;5.13;4.40;;;19.40;92.40;;;;;;2092402;28;20115;-71
2023/06/07 01:57:17;;;;;;;5.65;3.85;;;19.40;92.50;;;;;;2093078;28;20039;-71
2023/06/07 01:58:29;;;;;;;8.18;4.18;;;19.40;92.60;;;;;;2092194;28;20025;-71
2023/06/07 01:59:46;;;;;;;5.45;4.55;;;19.30;93.00;;;;;;2089861;28;20052;-71
2023/06/07 02:01:06;;;;;;;7.35;4.03;;;19.30;93.40;;;;;;2090685;28;20343;-71
2023/06/07 02:02:32;;;;;;;7.43;4.07;;;19.30;93.00;;;;;;2092372;28;20068;-71
2023/06/07 02:03:54;;;;;;;5.45;3.70;;;19.30;93.70;;;;;;2091917;28;20630;-71
2023/06/07 02:05:00;;;;;;;7.43;3.95;;;19.20;93.10;;;;;;2092342;28;20025;-71
2023/06/07 02:06:08;;;;;;;6.57;4.28;;;19.20;93.00;;;;;;2091432;28;20024;-71
2023/06/07 02:07:14;;;;;;;7.57;4.60;;;19.30;93.40;;;;;;2091597;28;20111;-71
2023/06/07 02:08:34;;;;;;;9.27;4.20;;;19.30;93.30;;;;;;2092681;28;20050;-71
2023/06/07 02:09:38;;;;;;;8.48;3.85;;;19.20;93.70;;;;;;2093385;28;20082;-71
2023/06/07 02:10:40;;;;;;;7.45;4.43;;;19.20;93.10;;;;;;2092533;28;20025;-71
2023/06/07 02:11:41;;;;;;;10.55;4.70;;;19.20;93.20;;;;;;2091600;28;20112;-71
2023/06/07 02:12:43;;;;;;;4.90;3.88;;;19.20;93.30;;;;;;2092372;28;20107;-71
2023/06/07 02:13:44;;;;;;;8.18;4.10;;;19.20;92.60;;;;;;2093070;28;20492;-71
2023/06/07 02:14:45;;;;;;;5.75;3.78;;;19.20;93.10;;;;;;2093064;28;20196;-71
2023/06/07 02:15:47;;;;;;;9.57;4.40;;;19.20;92.60;;;;;;2089626;28;20035;-71
2023/06/07 02:16:48;;;;;;;5.45;3.80;;;19.20;92.90;;;;;;2091835;28;20039;-71
2023/06/07 02:18:01;;;;;;;5.43;3.63;;;19.20;92.80;;;;;;2092095;28;20031;-71
2023/06/07 02:19:06;;;;;;;4.53;3.33;;;19.20;92.70;;;;;;2092180;28;20027;-71
2023/06/07 02:20:08;;;;;;;7.80;4.38;;;19.20;91.80;;;;;;2091089;28;20033;-71
2023/06/07 02:21:10;;;;;;;7.55;4.20;;;19.20;92.30;;;;;;2091866;28;20190;-71
2023/06/07 02:22:13;;;;;;;8.73;4.47;;;19.20;92.50;;;;;;2091942;28;20035;-71
2023/06/07 02:23:14;;;;;;;7.28;4.25;;;19.20;92.60;;;;;;2089746;28;20472;-71
2023/06/07 02:24:16;;;;;;;7.32;3.63;;;19.20;93.10;;;;;;2091460;28;20029;-71
2023/06/07 02:25:16;;;;;;;10.63;4.90;;;19.20;92.70;;;;;;2091643;28;20047;-71
2023/06/07 02:26:17;;;;;;;8.60;4.15;;;19.20;92.40;;;;;;2093591;28;20021;-71
2023/06/07 02:27:17;;;;;;;6.90;3.88;;;19.20;92.70;;;;;;2092324;28;20975;-71
2023/06/07 02:28:18;;;;;;;8.77;4.43;;;19.20;93.00;;;;;;2091431;28;20032;-71
2023/06/07 02:29:18;;;;;;;6.63;4.63;;;19.20;93.20;;;;;;2093208;28;20021;-71
2023/06/07 02:30:19;;;;;;;4.72;3.35;;;19.20;93.20;;;;;;2091447;28;20369;-71
2023/06/07 02:31:20;;;;;;;6.78;3.95;;;19.20;92.10;;;;;;2092699;28;20028;-71
2023/06/07 02:32:20;;;;;;;7.60;4.50;;;19.20;92.20;;;;;;2092925;28;20012;-71
2023/06/07 02:33:24;;;;;;;8.50;4.43;;;19.20;92.40;;;;;;2090638;28;20108;-71
2023/06/07 02:34:24;;;;;;;7.15;4.60;;;19.20;92.20;;;;;;2090549;28;20009;-71
2023/06/07 02:35:25;;;;;;;5.80;3.97;;;19.20;92.10;;;;;;2097492;28;20048;-71
2023/06/07 02:36:28;;;;;;;6.85;4.03;;;19.20;92.30;;;;;;2098924;28;20691;-71
2023/06/07 02:37:28;;;;;;;11.02;4.82;;;19.20;93.10;;;;;;2092472;28;20059;-71
2023/06/07 02:38:29;;;;;;;9.88;4.78;;;19.20;93.10;;;;;;2091521;28;20469;-71
2023/06/07 02:39:29;;;;;;;6.65;3.72;;;19.20;93.00;;;;;;2090787;28;20481;-71
2023/06/07 02:40:30;;;;;;;7.32;4.55;;;19.20;92.40;;;;;;2089742;28;20037;-71
2023/06/07 02:41:30;;;;;;;6.20;4.55;;;19.20;93.10;;;;;;2091185;28;20037;-71
2023/06/07 02:42:31;;;;;;;6.82;4.43;;;19.20;93.40;;;;;;2090762;28;20384;-71
2023/06/07 02:43:32;;;;;;;10.48;5.20;;;19.10;93.70;;;;;;2090246;28;20472;-71
2023/06/07 02:44:32;;;;;;;6.53;4.40;;;19.10;93.90;;;;;;2092492;28;20030;-71
2023/06/07 02:45:33;;;;;;;7.90;5.03;;;19.20;94.00;;;;;;2092424;28;20117;-71
2023/06/07 02:46:33;;;;;;;6.25;4.13;;;19.10;94.10;;;;;;2088794;28;20016;-71
2023/06/07 02:47:34;;;;;;;9.70;4.40;;;19.10;93.70;;;;;;2090620;28;20017;-71
2023/06/07 02:48:35;;;;;;;5.85;4.25;;;19.10;93.80;;;;;;2091346;28;20063;-71
2023/06/07 02:49:36;;;;;;;5.10;4.07;;;19.10;93.80;;;;;;2091540;28;20099;-71
2023/06/07 02:50:36;;;;;;;6.03;4.13;;;19.10;94.10;;;;;;2090672;28;20028;-71
2023/06/07 02:51:37;;;;;;;8.95;4.43;;;19.10;93.90;;;;;;2091906;28;20063;-71
2023/06/07 02:52:37;;;;;;;11.65;5.30;;;19.10;94.20;;;;;;2090800;28;20024;-71
2023/06/07 02:53:38;;;;;;;8.52;5.18;;;19.00;94.40;;;;;;2091105;28;20377;-71
2023/06/07 02:54:39;;;;;;;6.88;3.95;;;19.10;94.80;;;;;;2092224;28;20048;-71
2023/06/07 02:55:40;;;;;;;7.85;4.70;;;19.00;94.00;;;;;;2091082;28;20028;-71
2023/06/07 02:56:41;;;;;;;6.53;4.53;;;19.00;94.70;;;;;;2090420;28;20028;-71
2023/06/07 02:57:41;;;;;;;8.15;5.03;;;19.00;94.90;;;;;;2090631;28;20021;-71
2023/06/07 02:58:42;;;;;;;7.88;4.80;;;19.00;94.90;;;;;;2089973;28;20313;-71
2023/06/07 02:59:43;;;;;;;9.00;4.53;;;19.00;95.30;;;;;;2092028;28;20033;-71
2023/06/07 03:00:48;;;;;;;8.90;4.80;;;18.90;95.40;;;;;;2090791;28;20028;-71
2023/06/07 03:01:49;;;;;;;5.53;4.00;;;19.00;95.20;;;;;;2091323;28;20071;-71
2023/06/07 03:02:49;;;;;;;5.30;3.88;;;18.90;94.60;;;;;;2091692;28;20017;-71
2023/06/07 03:03:50;;;;;;;8.38;4.75;;;19.00;94.60;;;;;;2090786;28;20039;-71
2023/06/07 03:04:50;;;;;;;7.85;4.82;;;19.00;95.10;;;;;;2090211;28;20551;-71
2023/06/07 03:05:52;;;;;;;12.05;5.70;;;19.00;95.50;;;;;;2089874;28;20813;-72
2023/06/07 03:06:53;;;;;;;6.80;4.32;;;19.00;95.60;;;;;;2091827;28;20028;-71
2023/06/07 03:07:56;;;;;;;7.07;5.07;;;19.00;95.50;;;;;;2093374;28;20070;-71
2023/06/07 03:08:57;;;;;;;7.32;4.72;;;19.00;95.70;;;;;;2090313;28;20017;-71
2023/06/07 03:09:58;;;;;;;8.35;4.82;;;19.00;95.00;;;;;;2088744;28;20023;-71
2023/06/07 03:10:58;;;;;;;9.18;5.10;;;19.00;94.80;;;;;;2089096;28;20366;-71
2023/06/07 03:11:59;;;;;;;6.95;5.10;;;19.00;95.70;;;;;;2089083;28;20051;-71
2023/06/07 03:13:00;;;;;;;10.95;5.25;;;18.90;95.70;;;;;;2090868;28;20028;-71
2023/06/07 03:14:00;;;;;;;6.78;5.32;;;18.90;96.00;;;;;;2091427;28;20446;-71
2023/06/07 03:15:01;;;;;;;8.50;5.78;;;18.90;96.00;;;;;;2091309;28;20035;-71
2023/06/07 03:16:01;;;;;;;8.43;5.15;;;18.90;96.20;;;;;;2092613;28;20763;-71
2023/06/07 03:17:02;;;;;;;6.80;4.93;;;18.90;96.30;;;;;;2091735;28;20075;-71
2023/06/07 03:18:04;;;;;;;9.25;5.25;;;18.90;96.00;;;;;;2092919;28;20055;-71
2023/06/07 03:19:04;;;;;;;8.55;4.85;;;18.90;96.70;;;;;;2092156;28;20473;-71
2023/06/07 03:20:08;;;;;;;8.82;4.50;;;18.80;96.80;;;;;;2091204;28;20572;-71
2023/06/07 03:21:09;;;;;;;7.60;4.75;;;18.80;96.10;;;;;;2090136;28;20119;-71
2023/06/07 03:22:09;;;;;;;7.18;5.07;;;18.80;96.00;;;;;;2090327;28;20025;-71
2023/06/07 03:23:10;;;;;;;7.03;4.63;;;18.80;96.40;;;;;;2092197;28;20025;-71
2023/06/07 03:24:12;;;;;;;8.77;5.30;;;18.80;95.60;;;;;;2092069;28;20033;-71
2023/06/07 03:25:13;;;;;;;9.60;4.85;;;18.80;96.40;;;;;;2091468;28;20029;-72
2023/06/07 03:26:15;;;;;;;9.15;4.70;;;18.80;96.60;;;;;;2091946;28;20476;-72
2023/06/07 03:27:17;;;;;;;7.40;5.13;;;18.80;96.60;;;;;;2090486;28;20079;-71
2023/06/07 03:28:17;;;;;;;9.38;4.80;;;18.80;96.30;;;;;;2090538;28;20031;-71
2023/06/07 03:29:18;;;;;;;6.75;4.90;;;18.70;96.50;;;;;;2090312;28;20029;-71
2023/06/07 03:30:20;;;;;;;8.02;4.80;;;18.80;96.70;;;;;;2091597;28;20021;-71
2023/06/07 03:31:20;;;;;;;7.53;5.10;;;18.70;95.90;;;;;;2091615;28;20055;-71
2023/06/07 03:32:21;;;;;;;8.93;5.28;;;18.70;97.00;;;;;;2089849;28;20052;-71
2023/06/07 03:33:21;;;;;;;6.05;4.60;;;18.80;97.60;;;;;;2090645;28;20365;-71
2023/06/07 03:34:22;;;;;;;9.77;5.25;;;18.70;96.90;;;;;;2092156;28;20025;-71
2023/06/07 03:35:23;;;;;;;5.95;5.15;;;18.70;97.30;;;;;;2092895;28;20392;-71
2023/06/07 03:36:28;;;;;;;8.93;5.07;;;18.80;97.60;;;;;;2090552;28;20020;-71
2023/06/07 03:37:29;;;;;;;7.75;5.10;;;18.70;97.60;;;;;;2091399;28;20017;-71
2023/06/07 03:38:30;;;;;;;4.95;4.45;;;18.70;97.30;;;;;;2090186;28;20020;-71
2023/06/07 03:39:31;;;;;;;9.32;5.18;;;18.70;97.80;;;;;;2091938;28;20025;-71
2023/06/07 03:40:32;;;;;;;8.57;4.97;;;18.70;98.30;;;;;;2092222;28;20726;-71
2023/06/07 03:41:32;;;;;;;8.43;6.03;;;18.70;97.40;;;;;;2090841;28;20021;-71
2023/06/07 03:42:33;;;;;;;9.30;5.30;;;18.70;98.00;;;;;;2089828;28;20020;-71
2023/06/07 03:43:33;;;;;;;7.63;5.20;;;18.70;98.70;;;;;;2091985;28;20432;-71
2023/06/07 03:44:34;;;;;;;5.60;4.38;;;18.70;99.10;;;;;;2089248;28;20024;-71
2023/06/07 03:45:34;;;;;;;8.88;6.10;;;18.70;98.10;;;;;;2091300;28;20551;-71
2023/06/07 03:46:35;;;;;;;9.45;5.90;;;18.70;99.40;;;;;;2092384;28;20033;-71
2023/06/07 03:47:37;;;;;;;11.05;5.78;;;18.70;99.90;;;;;;2088601;28;20016;-71
2023/06/07 03:48:38;;;;;;;10.63;5.70;;;18.60;99.90;;;;;;2092760;28;20024;-72
2023/06/07 03:49:38;;;;;;;7.22;5.80;;;18.70;99.90;;;;;;2090385;28;20016;-72
2023/06/07 03:50:39;;;;;;;9.15;5.95;;;18.60;99.90;;;;;;2092032;28;20028;-72
2023/06/07 03:51:41;;;;;;;8.85;5.53;;;18.60;99.90;;;;;;2090135;28;20719;-72
2023/06/07 03:52:42;;;;;;;10.07;5.72;;;18.60;99.90;;;;;;2091116;28;20031;-71
2023/06/07 03:53:42;;;;;;;9.10;6.15;;;18.60;99.90;;;;;;2089429;28;20063;-71
2023/06/07 03:54:43;;;;;;;9.25;5.80;;;18.60;99.90;;;;;;2090658;28;20032;-71
2023/06/07 03:55:43;;;;;;;7.63;5.38;;;18.50;99.90;;;;;;2090415;28;20111;-71
2023/06/07 03:56:44;;;;;;;9.27;5.78;;;18.50;99.90;;;;;;2091714;28;20385;-71
2023/06/07 03:57:44;;;;;;;11.10;6.43;;;18.50;99.90;;;;;;2090464;28;20025;-71
2023/06/07 03:58:46;;;;;;;7.47;5.05;;;18.40;99.90;;;;;;2090823;28;20035;-71
2023/06/07 03:59:47;;;;;;;10.63;5.90;;;18.40;99.90;;;;;;2093159;28;20031;-71
2023/06/07 04:00:47;;;;;;;10.85;6.18;;;18.40;99.90;;;;;;2091498;28;20040;-71
2023/06/07 04:01:49;;;;;;;7.88;5.78;;;18.30;99.90;;;;;;2091771;28;20071;-71
2023/06/07 04:02:49;;;;;;;8.18;5.28;;;18.30;99.90;;;;;;2091731;28;20029;-71
2023/06/07 04:03:50;;;;;;;7.03;5.90;;;18.30;99.90;;;;;;2092119;28;20040;-71
2023/06/07 04:04:52;;;;;;;10.30;6.10;;;18.30;99.90;;;;;;2089095;28;20024;-71
2023/06/07 04:05:53;;;;;;;8.10;5.75;;;18.30;99.90;;;;;;2091849;28;20024;-71
2023/06/07 04:06:54;;;;;;;9.10;5.28;;;18.30;99.90;;;;;;2092665;28;20024;-71
2023/06/07 04:07:59;;;;;;;6.45;5.32;;;18.30;99.90;;;;;;2089020;28;20025;-71
2023/06/07 04:08:59;;;;;;;10.77;6.38;;;18.30;99.90;;;;;;2090225;28;20041;-71
2023/06/07 04:10:00;;;;;;;7.78;5.45;;;18.30;99.90;;;;;;2087563;28;20037;-71
2023/06/07 04:11:01;;;;;;;10.00;5.35;;;18.30;99.90;;;;;;2091748;28;20113;-71
2023/06/07 04:12:05;;;;;;;7.47;5.20;;;18.30;99.90;;;;;;2089418;28;20034;-71
2023/06/07 04:13:06;;;;;;;8.65;6.32;;;18.30;99.90;;;;;;2090406;28;20110;-71
2023/06/07 04:14:06;;;;;;;14.07;6.95;;;18.30;99.90;;;;;;2091280;28;20086;-71
2023/06/07 04:15:07;;;;;;;9.60;5.63;;;18.30;99.90;;;;;;2091175;28;20389;-71
2023/06/07 04:16:07;;;;;;;9.02;6.47;;;18.30;99.90;;;;;;2092460;28;20056;-71
2023/06/07 04:17:08;;;;;;;7.82;5.70;;;18.20;99.90;;;;;;2091765;28;20036;-71
2023/06/07 04:18:08;;;;;;;10.35;7.13;;;18.20;99.90;;;;;;2091625;28;20136;-71
2023/06/07 04:19:09;;;;;;;12.52;6.70;;;18.20;99.90;;;;;;2090488;28;20024;-71
2023/06/07 04:20:10;;;;;;;10.55;6.30;;;18.20;99.90;;;;;;2089696;28;20030;-71
2023/06/07 04:21:12;;;;;;;12.13;6.45;;;18.20;99.90;;;;;;2091145;28;20029;-71
2023/06/07 04:22:13;;;;;;;8.65;6.60;;;18.20;99.90;;;;;;2089627;28;20051;-71
2023/06/07 04:23:13;;;;;;;8.73;5.88;;;18.20;99.90;;;;;;2097337;28;20463;-71
2023/06/07 04:24:15;;;;;;;11.02;6.47;;;18.20;99.90;;;;;;2099549;28;20029;-71
2023/06/07 04:25:16;;;;;;;11.63;6.70;;;18.20;99.90;;;;;;2091774;28;20115;-71
2023/06/07 04:26:21;;;;;;;10.18;6.57;;;18.10;99.90;;;;;;2090374;28;20025;-71
2023/06/07 04:27:23;;;;;;;8.98;6.80;;;18.10;99.90;;;;;;2091939;28;20025;-71
2023/06/07 04:28:24;;;;;;;13.35;6.80;;;18.10;99.90;;;;;;2092052;28;20027;-71
2023/06/07 04:29:26;;;;;;;10.13;6.40;;;18.10;99.90;;;;;;2091231;28;20023;-71
2023/06/07 04:30:34;;;;;;;9.48;6.38;;;18.10;99.90;;;;;;2090713;28;20021;-71
2023/06/07 04:31:34;;;;;;;11.98;7.20;;;18.10;99.90;;;;;;2091331;28;20056;-71
2023/06/07 04:32:37;;;;;;;9.82;6.63;;;18.10;99.90;;;;;;2091768;28;20036;-71
2023/06/07 04:33:39;;;;;;;13.10;6.82;;;18.10;99.90;;;;;;2091398;28;20021;-71
2023/06/07 04:34:41;;;;;;;8.30;6.38;;;18.10;99.90;;;;;;2090207;28;20473;-71
2023/06/07 04:35:42;;;;;;;10.32;6.72;;;18.10;99.90;;;;;;2090547;28;20033;-71
2023/06/07 04:36:43;;;;;;;8.07;5.82;;;18.10;99.90;;;;;;2093893;28;20028;-71
2023/06/07 04:37:45;;;;;;;10.25;6.57;;;18.00;99.90;;;;;;2093627;28;20443;-71
2023/06/07 04:38:46;;;;;;;6.20;5.55;;;18.10;99.90;;;;;;2090550;28;20042;-71
2023/06/07 04:39:49;;;;;;;10.30;6.32;;;18.10;99.90;;;;;;2091033;28;20199;-71
2023/06/07 04:40:50;;;;;;;12.82;5.72;;;18.00;99.90;;;;;;2089397;28;20025;-71
2023/06/07 04:41:52;;;;;;;10.00;7.20;;;18.00;99.90;;;;;;2092007;28;20029;-71
2023/06/07 04:42:55;;;;;;;9.15;7.78;;;18.00;99.90;;;;;;2092776;28;20052;-71
2023/06/07 04:44:03;;;;;;;8.50;6.70;;;18.00;99.90;;;;;;2091783;28;20051;-71
2023/06/07 04:45:04;;;;;;;9.77;6.68;;;18.00;99.90;;;;;;2093300;28;20039;-71
2023/06/07 04:46:05;;;;;;;13.55;7.10;;;18.00;99.90;;;;;;2085450;28;20057;-71
2023/06/07 04:47:08;;;;;;;9.77;6.10;;;18.00;99.90;;;;;;2082475;28;20030;-71
2023/06/07 04:48:11;;;;;;;9.52;6.25;;;17.90;99.90;;;;;;2088167;28;20052;-71
2023/06/07 04:49:12;;;;;;;10.50;6.88;;;17.90;99.90;;;;;;2092445;28;20043;-71
2023/06/07 04:50:13;;;;;;;11.00;6.75;;;17.90;99.90;;;;;;2092028;28;20028;-71
2023/06/07 04:51:14;;;;;;;8.32;6.90;;;17.90;99.90;;;;;;2089403;28;20111;-71
2023/06/07 04:52:19;;;;;;;13.55;7.57;;;17.90;99.90;;;;;;2090204;28;20124;-71
2023/06/07 04:53:20;;;;;;;10.13;6.75;;;17.90;99.90;;;;;;2092244;28;20016;-71
2023/06/07 04:54:21;;;;;;;12.02;7.45;;;17.90;99.90;;;;;;2089837;28;20075;-71
2023/06/07 04:55:22;;;;;;;13.05;6.93;;;17.90;99.90;;;;;;2092152;28;20033;-70
2023/06/07 04:56:22;;;;;;;13.63;6.85;;;17.90;99.90;;;;;;2090826;28;20021;-70
2023/06/07 04:57:23;;;;;;;11.30;7.15;;;17.80;99.90;;;;;;2091275;28;20029;-70
2023/06/07 04:58:24;;;;;;;12.48;7.28;;;17.80;99.90;;;;;;2091875;28;20040;-70
2023/06/07 04:59:29;;;;;;;8.10;6.25;;;17.80;99.90;;;;;;2091245;28;20032;-70
2023/06/07 05:00:33;;;;;;;11.02;7.03;;;17.80;99.90;;;;;;2090118;28;20409;-70
2023/06/07 05:01:35;;;;;;;10.45;7.45;;;17.80;99.90;;;;;;2091700;28;20017;-70
2023/06/07 05:02:41;;;;;;;7.70;6.15;;;17.80;99.90;;;;;;2090291;28;20021;-70
2023/06/07 05:03:41;;;;;;;10.73;7.68;;;17.70;99.90;;;;;;2090107;28;20056;-70
2023/06/07 05:04:42;;;;;;;10.27;6.75;;;17.70;99.90;;;;;;2089643;28;20024;-70
2023/06/07 05:05:43;;;;;;;10.40;7.53;;;17.80;99.90;;;;;;2091050;28;20036;-70
2023/06/07 05:06:43;;;;;;;10.38;7.32;;;17.70;99.90;;;;;;2091523;28;20071;-70
2023/06/07 05:07:44;;;;;;;12.77;6.93;;;17.70;99.90;;;;;;2088728;28;20040;-70
2023/06/07 05:08:46;;;;;;;13.20;7.20;;;17.70;99.90;;;;;;2089771;28;20052;-70
2023/06/07 05:09:46;;;;;;;10.35;7.22;;;17.70;99.90;;;;;;2091970;28;20008;-70
2023/06/07 05:10:47;;;;;;;9.38;7.28;;;17.70;99.90;;;;;;2089503;28;20035;-70
2023/06/07 05:11:47;;;;;;;8.88;6.68;;;17.70;99.90;;;;;;2088915;28;20021;-70
2023/06/07 05:12:48;;;;;;;9.48;7.38;;;17.70;99.90;;;;;;2091363;28;20446;-70
2023/06/07 05:13:48;;;;;;;12.10;6.97;;;17.70;99.90;;;;;;2090395;28;20631;-70
2023/06/07 05:14:49;;;;;;;10.82;7.68;;;17.70;99.90;;;;;;2091673;28;20033;-70
2023/06/07 05:15:50;;;;;;;12.05;7.43;;;17.70;99.90;;;;;;2091591;28;20564;-70
2023/06/07 05:16:51;;;;;;;8.85;6.57;;;17.60;99.90;;;;;;2092622;28;20029;-70
2023/06/07 05:17:53;;;;;;;8.13;5.72;;;17.60;99.90;;;;;;2091327;28;20078;-70
2023/06/07 05:19:03;;;;;;;10.13;6.78;;;17.60;99.90;;;;;;2090058;28;20779;-70
2023/06/07 05:20:12;;;;;;;9.65;6.88;;;17.60;99.90;;;;;;2091282;28;20558;-70
2023/06/07 05:21:13;;;;;;;9.45;6.55;;;17.60;99.90;;;;;;2090589;28;20040;-70